Time;durP1;ratioP1;P1;durP2;ratioP2;P2;SDS_P1;SDS_P2;PMS_P1;PMS_P2;Temp;Humidity;BMP_temperature;BMP_pressure;BME280_temperature;BME280_humidity;BME280_pressure;Samples;Min_cycle;Max_cycle;Signal;HPM_P1;HPM_P2
2021/01/07 00:00:03;;;;;;;4.03;3.73;;;;;;;2.31;73.84;100476.84;685724;28;22677;-61
2021/01/07 00:00:33;;;;;;;4.20;3.80;;;;;;;2.30;73.66;100478.69;681770;28;138453;-60
2021/01/07 00:00:55;;;;;;;4.38;3.97;;;;;;;2.30;73.79;100483.13;685889;28;22416;-60
2021/01/07 00:01:16;;;;;;;4.25;3.95;;;;;;;2.28;73.79;100482.44;684824;28;46409;-60
2021/01/07 00:01:39;;;;;;;4.18;3.83;;;;;;;2.30;73.75;100484.00;686944;28;4981;-60
2021/01/07 00:02:00;;;;;;;4.32;3.92;;;;;;;2.30;73.79;100486.66;686418;28;839;-60
2021/01/07 00:02:22;;;;;;;3.97;3.63;;;;;;;2.28;73.78;100485.94;684701;28;46395;-60
2021/01/07 00:02:43;;;;;;;4.00;3.70;;;;;;;2.29;73.86;100486.81;684811;28;45274;-61
2021/01/07 00:03:05;;;;;;;4.30;3.90;;;;;;;2.30;73.73;100484.00;685577;28;22418;-58
2021/01/07 00:03:26;;;;;;;3.92;3.63;;;;;;;2.31;73.71;100487.50;685808;28;22368;-59
2021/01/07 00:03:48;;;;;;;3.72;3.42;;;;;;;2.32;73.78;100481.19;685842;28;23333;-58
2021/01/07 00:04:09;;;;;;;4.00;3.65;;;;;;;2.32;73.74;100478.50;685974;28;45129;-60
2021/01/07 00:04:30;;;;;;;4.20;3.80;;;;;;;2.32;73.75;100474.06;686005;28;18872;-61
2021/01/07 00:04:52;;;;;;;4.13;3.80;;;;;;;2.29;73.62;100478.81;685482;28;38262;-59
2021/01/07 00:05:13;;;;;;;4.20;3.90;;;;;;;2.31;73.54;100472.34;685437;28;21576;-55
2021/01/07 00:05:35;;;;;;;3.90;3.60;;;;;;;2.31;73.69;100479.50;685721;28;22411;-58
2021/01/07 00:05:56;;;;;;;3.97;3.67;;;;;;;2.32;73.51;100475.84;684960;28;45302;-58
2021/01/07 00:06:18;;;;;;;3.85;3.55;;;;;;;2.31;73.54;100483.00;684869;28;44383;-57
2021/01/07 00:06:39;;;;;;;3.78;3.47;;;;;;;2.31;73.53;100476.84;686602;28;21525;-59
2021/01/07 00:07:02;;;;;;;3.85;3.55;;;;;;;2.31;73.57;100474.19;685876;28;23439;-61
2021/01/07 00:07:24;;;;;;;4.13;3.75;;;;;;;2.31;73.63;100485.69;683189;28;92554;-59
2021/01/07 00:07:45;;;;;;;4.28;3.90;;;;;;;2.32;73.54;100482.03;685169;28;47503;-57
2021/01/07 00:08:07;;;;;;;4.30;3.90;;;;;;;2.34;73.44;100479.25;685826;28;22427;-59
2021/01/07 00:08:28;;;;;;;3.85;3.55;;;;;;;2.33;73.37;100475.72;685639;28;21590;-61
2021/01/07 00:08:52;;;;;;;3.88;3.53;;;;;;;2.34;73.45;100485.41;684783;28;21528;-60
2021/01/07 00:09:13;;;;;;;3.97;3.58;;;;;;;2.30;73.36;100472.47;683319;28;115984;-60
2021/01/07 00:09:34;;;;;;;3.78;3.47;;;;;;;2.32;73.32;100476.72;684847;28;46345;-59
2021/01/07 00:09:56;;;;;;;4.15;3.83;;;;;;;2.32;73.41;100484.72;685687;28;23480;-60
2021/01/07 00:10:17;;;;;;;3.78;3.47;;;;;;;2.32;73.40;100476.72;685717;28;23615;-61
2021/01/07 00:10:39;;;;;;;3.83;3.53;;;;;;;2.32;73.34;100470.50;684815;28;46380;-59
2021/01/07 00:11:00;;;;;;;4.40;4.00;;;;;;;2.30;73.34;100477.81;685970;28;22766;-60
2021/01/07 00:11:21;;;;;;;3.90;3.60;;;;;;;2.32;73.39;100478.50;685881;28;21599;-58
2021/01/07 00:11:42;;;;;;;4.03;3.67;;;;;;;2.32;73.32;100482.03;686643;28;35392;-61
2021/01/07 00:12:05;;;;;;;4.07;3.78;;;;;;;2.31;73.83;100484.84;685468;28;15777;-60
2021/01/07 00:12:27;;;;;;;3.75;3.45;;;;;;;2.30;73.31;100481.34;683778;28;68156;-61
2021/01/07 00:12:48;;;;;;;3.92;3.60;;;;;;;2.31;73.35;100485.69;685203;28;43989;-62
2021/01/07 00:13:09;;;;;;;3.80;3.50;;;;;;;2.31;73.54;100484.84;685586;28;22412;-60
2021/01/07 00:13:31;;;;;;;3.75;3.45;;;;;;;2.30;73.32;100480.47;685990;28;24358;-60
2021/01/07 00:13:53;;;;;;;3.90;3.60;;;;;;;2.29;73.49;100476.13;685532;28;23000;-61
2021/01/07 00:14:14;;;;;;;3.90;3.60;;;;;;;2.29;73.51;100476.97;684455;28;69391;-60
2021/01/07 00:14:35;;;;;;;4.00;3.70;;;;;;;2.29;73.46;100479.63;685780;28;23431;-57
2021/01/07 00:14:58;;;;;;;4.28;3.80;;;;;;;2.29;73.51;100476.13;686178;28;1050;-59
2021/01/07 00:15:20;;;;;;;4.03;3.72;;;;;;;2.29;73.43;100476.13;684651;28;47233;-57
2021/01/07 00:15:41;;;;;;;4.03;3.72;;;;;;;2.29;73.27;100484.13;685676;28;22426;-59
2021/01/07 00:16:03;;;;;;;4.05;3.63;;;;;;;2.28;73.52;100477.94;685069;28;46519;-58
2021/01/07 00:16:25;;;;;;;5.80;3.65;;;;;;;2.29;73.57;100476.13;684841;28;47500;-58
2021/01/07 00:16:46;;;;;;;4.85;3.95;;;;;;;2.29;73.51;100476.13;684003;28;23530;-56
2021/01/07 00:17:07;;;;;;;4.03;3.67;;;;;;;2.30;73.53;100480.47;681722;28;47147;-59
2021/01/07 00:17:29;;;;;;;4.00;3.70;;;;;;;2.30;73.49;100477.81;682863;28;22412;-59
2021/01/07 00:17:50;;;;;;;3.95;3.65;;;;;;;2.29;73.42;100474.31;683173;28;16134;-61
2021/01/07 00:18:11;;;;;;;4.00;3.70;;;;;;;2.29;73.37;100476.13;683284;28;22229;-60
2021/01/07 00:18:33;;;;;;;4.22;3.83;;;;;;;2.29;73.35;100479.63;683126;28;23493;-61
2021/01/07 00:18:54;;;;;;;3.90;3.60;;;;;;;2.29;73.39;100476.97;684511;28;46264;-60
2021/01/07 00:19:16;;;;;;;3.70;3.40;;;;;;;2.28;73.41;100480.59;686634;28;23493;-60
2021/01/07 00:19:37;;;;;;;4.03;3.72;;;;;;;2.28;73.45;100477.94;686343;28;13680;-61
2021/01/07 00:19:58;;;;;;;3.78;3.47;;;;;;;2.28;73.40;100475.28;685916;28;23664;-61
2021/01/07 00:20:19;;;;;;;3.55;3.25;;;;;;;2.30;73.57;100480.47;685260;28;23346;-60
2021/01/07 00:20:41;;;;;;;3.10;2.90;;;;;;;2.26;73.47;100476.41;685767;28;21568;-60
2021/01/07 00:21:02;;;;;;;3.92;3.63;;;;;;;2.28;73.54;100479.78;682116;28;38573;-61
2021/01/07 00:21:24;;;;;;;4.07;3.78;;;;;;;2.28;73.39;100475.28;682778;28;22233;-61
2021/01/07 00:21:45;;;;;;;4.10;3.80;;;;;;;2.29;73.39;100476.97;683104;28;40366;-60
2021/01/07 00:22:06;;;;;;;3.95;3.65;;;;;;;2.29;73.52;100476.13;683268;28;23648;-60
2021/01/07 00:22:28;;;;;;;4.18;3.78;;;;;;;2.30;73.40;100472.47;683082;28;22420;-61
2021/01/07 00:22:49;;;;;;;3.78;3.47;;;;;;;2.29;73.27;100476.13;682545;28;46285;-61
2021/01/07 00:23:10;;;;;;;3.72;3.42;;;;;;;2.29;73.35;100478.81;685456;28;22341;-61
2021/01/07 00:23:31;;;;;;;3.72;3.42;;;;;;;2.28;73.39;100477.94;685680;28;23525;-61
2021/01/07 00:23:53;;;;;;;3.65;3.35;;;;;;;2.29;73.37;100476.13;685027;28;46323;-61
2021/01/07 00:24:14;;;;;;;4.00;3.70;;;;;;;2.27;73.37;100472.75;686489;28;21441;-59
2021/01/07 00:24:36;;;;;;;4.15;3.85;;;;;;;2.27;73.40;100468.28;684975;28;45281;-57
2021/01/07 00:24:57;;;;;;;3.95;3.65;;;;;;;2.27;73.33;100481.59;685882;28;22242;-60
2021/01/07 00:25:18;;;;;;;3.85;3.55;;;;;;;2.28;73.25;100475.28;684228;28;22409;-59
2021/01/07 00:25:46;;;;;;;3.33;3.13;;;;;;;2.27;73.39;100472.75;685755;28;22839;-60
2021/01/07 00:26:08;;;;;;;3.90;3.40;;;;;;;2.26;73.54;100471.06;680762;28;160896;-60
2021/01/07 00:26:33;;;;;;;3.95;3.55;;;;;;;2.29;73.54;100473.47;684863;28;45100;-60
2021/01/07 00:26:55;;;;;;;4.00;3.70;;;;;;;2.28;73.36;100477.94;681737;28;138084;-59
2021/01/07 00:27:16;;;;;;;3.83;3.53;;;;;;;2.28;73.30;100477.94;685391;28;21542;-57
2021/01/07 00:27:38;;;;;;;3.95;3.65;;;;;;;2.29;73.34;100476.97;684807;28;45258;-61
2021/01/07 00:28:00;;;;;;;4.03;3.70;;;;;;;2.26;73.38;100465.75;684960;28;46348;-59
2021/01/07 00:28:23;;;;;;;4.00;3.70;;;;;;;2.26;73.33;100477.22;685611;28;23305;-57
2021/01/07 00:28:44;;;;;;;3.80;3.50;;;;;;;2.27;73.44;100478.06;683288;28;69435;-58
2021/01/07 00:29:06;;;;;;;3.83;3.53;;;;;;;2.28;73.37;100474.44;686381;28;22424;-57
2021/01/07 00:29:27;;;;;;;4.28;3.80;;;;;;;2.26;73.39;100474.56;684625;28;46278;-58
2021/01/07 00:29:48;;;;;;;4.07;3.67;;;;;;;2.28;73.43;100477.94;685317;28;44359;-60
2021/01/07 00:30:11;;;;;;;4.15;3.65;;;;;;;2.26;73.28;100474.56;685816;28;21533;-60
2021/01/07 00:30:32;;;;;;;4.00;3.70;;;;;;;2.28;73.61;100475.28;683883;28;69552;-59
2021/01/07 00:30:54;;;;;;;3.83;3.53;;;;;;;2.28;73.36;100474.44;685612;28;23414;-58
2021/01/07 00:31:15;;;;;;;3.90;3.60;;;;;;;2.26;73.35;100466.56;685925;28;22396;-61
2021/01/07 00:31:37;;;;;;;3.67;3.38;;;;;;;2.26;73.38;100471.06;685473;28;46369;-62
2021/01/07 00:31:58;;;;;;;4.07;3.78;;;;;;;2.28;73.31;100469.94;686084;28;17321;-61
2021/01/07 00:32:20;;;;;;;4.20;3.80;;;;;;;2.26;73.36;100473.72;684892;28;42536;-58
2021/01/07 00:32:41;;;;;;;3.80;3.50;;;;;;;2.26;73.27;100477.22;685598;28;23272;-60
2021/01/07 00:33:03;;;;;;;4.00;3.70;;;;;;;2.25;73.49;100472.88;684936;28;46220;-60
2021/01/07 00:33:24;;;;;;;3.97;3.67;;;;;;;2.24;73.55;100467.66;685777;28;22336;-60
2021/01/07 00:33:46;;;;;;;3.75;3.45;;;;;;;2.26;73.43;100476.41;684798;28;43702;-59
2021/01/07 00:34:07;;;;;;;3.80;3.55;;;;;;;2.25;73.41;100474.69;686787;28;23226;-59
2021/01/07 00:34:28;;;;;;;4.00;3.70;;;;;;;2.25;73.44;100470.19;685448;28;46290;-59
2021/01/07 00:34:50;;;;;;;3.88;3.58;;;;;;;2.25;73.50;100472.88;685707;28;22325;-58
2021/01/07 00:35:11;;;;;;;3.78;3.47;;;;;;;2.25;73.57;100464.88;684536;28;44417;-59
2021/01/07 00:35:33;;;;;;;3.80;3.50;;;;;;;2.25;73.47;100475.53;685223;28;23462;-57
2021/01/07 00:35:54;;;;;;;3.60;3.30;;;;;;;2.26;73.58;100479.06;685855;28;23496;-56
2021/01/07 00:36:17;;;;;;;3.80;3.50;;;;;;;2.25;73.56;100472.88;685701;28;22402;-59
2021/01/07 00:36:40;;;;;;;4.03;3.70;;;;;;;2.25;73.45;100470.19;686897;28;38784;-58
2021/01/07 00:37:02;;;;;;;4.13;3.80;;;;;;;2.25;73.45;100466.69;686215;28;1659;-57
2021/01/07 00:37:23;;;;;;;4.03;3.70;;;;;;;2.25;73.58;100474.69;685723;28;22465;-60
2021/01/07 00:37:44;;;;;;;4.10;3.70;;;;;;;2.25;73.48;100477.38;685468;28;46379;-57
2021/01/07 00:38:06;;;;;;;3.83;3.53;;;;;;;2.23;73.41;100468.66;685640;28;22313;-57
2021/01/07 00:38:27;;;;;;;4.00;3.70;;;;;;;2.24;73.54;100473.88;685728;28;34372;-60
2021/01/07 00:38:49;;;;;;;4.20;3.80;;;;;;;2.23;73.35;100472.16;685277;28;23506;-60
2021/01/07 00:39:10;;;;;;;3.60;3.40;;;;;;;2.23;73.49;100474.00;686191;28;31475;-59
2021/01/07 00:39:31;;;;;;;4.00;3.70;;;;;;;2.22;73.43;100470.47;686730;28;3449;-60
2021/01/07 00:39:53;;;;;;;3.63;3.33;;;;;;;2.17;73.39;100468.19;685643;28;21316;-57
2021/01/07 00:40:15;;;;;;;3.90;3.60;;;;;;;2.23;73.39;100468.66;684803;28;44360;-60
2021/01/07 00:40:36;;;;;;;4.10;3.80;;;;;;;2.22;73.48;100473.13;684887;28;22388;-57
2021/01/07 00:40:57;;;;;;;3.72;3.42;;;;;;;2.22;73.45;100470.47;684965;28;44374;-59
2021/01/07 00:41:19;;;;;;;3.75;3.45;;;;;;;2.16;73.43;100460.31;685549;28;23438;-58
2021/01/07 00:41:41;;;;;;;3.83;3.53;;;;;;;2.22;73.38;100466.97;687243;28;31722;-59
2021/01/07 00:42:02;;;;;;;3.70;3.50;;;;;;;2.17;73.46;100467.34;685030;28;43077;-59
2021/01/07 00:42:23;;;;;;;3.65;3.45;;;;;;;2.24;73.46;100473.00;685549;28;20187;-59
2021/01/07 00:42:46;;;;;;;3.63;3.40;;;;;;;2.23;73.66;100471.31;682830;28;18274;-58
2021/01/07 00:43:07;;;;;;;3.50;3.30;;;;;;;2.22;73.52;100470.47;681613;28;69021;-57
2021/01/07 00:43:29;;;;;;;3.50;3.30;;;;;;;2.24;73.48;100470.34;682047;28;46358;-56
2021/01/07 00:43:50;;;;;;;4.10;3.70;;;;;;;2.24;73.38;100475.66;682828;28;22505;-58
2021/01/07 00:44:11;;;;;;;3.95;3.55;;;;;;;2.24;73.51;100473.88;682834;28;40075;-60
2021/01/07 00:44:32;;;;;;;3.92;3.63;;;;;;;2.25;73.41;100474.69;684036;28;9224;-61
2021/01/07 00:44:54;;;;;;;4.20;3.90;;;;;;;2.26;73.34;100476.41;685868;28;23446;-60
2021/01/07 00:45:16;;;;;;;4.10;3.70;;;;;;;2.25;73.42;100478.19;684662;28;46298;-59
2021/01/07 00:45:38;;;;;;;4.00;3.70;;;;;;;2.25;73.43;100470.19;682551;28;42687;-59
2021/01/07 00:45:59;;;;;;;3.72;3.42;;;;;;;2.24;73.45;100475.66;679291;28;46317;-60
2021/01/07 00:46:21;;;;;;;3.92;3.63;;;;;;;2.24;73.50;100478.31;682590;28;22478;-60
2021/01/07 00:46:42;;;;;;;4.10;3.80;;;;;;;2.23;73.29;100476.66;683561;28;45289;-60
2021/01/07 00:47:03;;;;;;;3.72;3.42;;;;;;;2.24;73.40;100478.31;682720;28;22396;-60
2021/01/07 00:47:24;;;;;;;4.20;3.80;;;;;;;2.25;73.48;100480.03;683211;28;22420;-61
2021/01/07 00:47:46;;;;;;;4.03;3.63;;;;;;;2.23;73.34;100477.50;685425;28;46323;-60
2021/01/07 00:48:08;;;;;;;4.00;3.70;;;;;;;2.25;73.32;100482.69;684870;28;1700;-61
2021/01/07 00:48:30;;;;;;;4.10;3.70;;;;;;;2.25;73.31;100480.88;680149;28;34693;-61
2021/01/07 00:48:51;;;;;;;3.75;3.45;;;;;;;2.25;73.41;100478.19;679758;29;23321;-61
2021/01/07 00:49:13;;;;;;;3.53;3.30;;;;;;;2.24;73.76;100479.19;679748;29;22426;-61
2021/01/07 00:49:34;;;;;;;3.92;3.60;;;;;;;2.25;73.38;100480.03;677749;29;47202;-61
2021/01/07 00:49:56;;;;;;;4.22;3.80;;;;;;;2.24;73.45;100478.31;675344;29;44367;-60
2021/01/07 00:50:17;;;;;;;3.70;3.40;;;;;;;2.22;73.30;100465.13;679207;29;22129;-61
2021/01/07 00:50:39;;;;;;;3.90;3.60;;;;;;;2.25;73.48;100475.53;681563;29;21542;-59
2021/01/07 00:51:00;;;;;;;3.90;3.60;;;;;;;2.23;73.27;100474.00;681001;28;46332;-58
2021/01/07 00:51:33;;;;;;;3.72;3.42;;;;;;;2.24;73.32;100476.53;681798;28;22358;-62
2021/01/07 00:51:56;;;;;;;3.90;3.50;;;;;;;2.24;73.29;100479.19;680697;28;161321;-60
2021/01/07 00:52:18;;;;;;;3.80;3.50;;;;;;;2.25;73.32;100475.53;681546;28;46617;-60
2021/01/07 00:52:41;;;;;;;3.78;3.47;;;;;;;2.26;73.41;100477.22;682875;28;46473;-62
2021/01/07 00:53:03;;;;;;;3.97;3.67;;;;;;;2.26;73.30;100477.22;683614;28;59029;-60
2021/01/07 00:53:25;;;;;;;4.05;3.75;;;;;;;2.26;73.35;100473.72;685867;28;46320;-60
2021/01/07 00:53:46;;;;;;;4.00;3.70;;;;;;;2.25;73.28;100477.38;683654;28;22455;-62
2021/01/07 00:54:12;;;;;;;4.00;3.70;;;;;;;2.26;73.31;100476.41;682352;28;89971;-61
2021/01/07 00:54:35;;;;;;;3.95;3.65;;;;;;;2.25;73.32;100475.53;679545;29;68917;-61
2021/01/07 00:54:56;;;;;;;3.97;3.67;;;;;;;2.25;73.41;100475.53;679064;29;46273;-60
2021/01/07 00:55:18;;;;;;;4.00;3.70;;;;;;;2.24;73.38;100473.88;679881;29;20337;-60
2021/01/07 00:55:43;;;;;;;3.95;3.65;;;;;;;2.24;73.34;100467.66;676189;29;126179;-60
2021/01/07 00:56:07;;;;;;;3.80;3.50;;;;;;;2.24;73.35;100473.00;680011;28;93357;-61
2021/01/07 00:56:37;;;;;;;4.10;3.80;;;;;;;2.21;73.35;100475.91;680137;28;138252;-60
2021/01/07 00:56:59;;;;;;;3.97;3.67;;;;;;;2.24;73.26;100479.19;677957;29;115127;-60
2021/01/07 00:57:23;;;;;;;3.70;3.45;;;;;;;2.24;73.41;100473.88;679166;28;92611;-58
2021/01/07 00:57:45;;;;;;;3.90;3.60;;;;;;;2.23;73.27;100472.16;683788;28;20403;-60
2021/01/07 00:58:07;;;;;;;3.72;3.42;;;;;;;2.24;73.31;100481.84;680280;28;56887;-58
2021/01/07 00:58:28;;;;;;;3.90;3.60;;;;;;;2.25;73.38;100472.88;681871;28;46460;-58
2021/01/07 00:58:50;;;;;;;3.60;3.35;;;;;;;2.25;73.31;100470.19;684469;28;4117;-59
2021/01/07 00:59:12;;;;;;;3.75;3.45;;;;;;;2.26;73.26;100465.75;686662;28;6816;-61
2021/01/07 00:59:33;;;;;;;3.72;3.45;;;;;;;2.25;73.28;100470.19;685355;28;31737;-60
2021/01/07 00:59:54;;;;;;;3.78;3.47;;;;;;;2.24;73.13;100471.19;685756;28;20668;-60
2021/01/07 01:00:18;;;;;;;3.65;3.40;;;;;;;2.23;73.34;100477.50;685692;28;18964;-62
2021/01/07 01:00:40;;;;;;;3.45;3.25;;;;;;;2.23;73.36;100477.50;683326;28;90584;-59
2021/01/07 01:01:02;;;;;;;3.80;3.50;;;;;;;2.23;73.35;100472.16;685546;28;23413;-60
2021/01/07 01:01:23;;;;;;;3.70;3.40;;;;;;;2.24;73.36;100471.19;685067;28;46338;-61
2021/01/07 01:01:45;;;;;;;3.60;3.30;;;;;;;2.24;73.33;100465.88;688528;28;946;-60
2021/01/07 01:02:06;;;;;;;3.50;3.30;;;;;;;2.24;73.24;100473.00;684241;28;69552;-60
2021/01/07 01:02:28;;;;;;;3.75;3.50;;;;;;;2.24;73.20;100476.53;686516;28;16987;-60
2021/01/07 01:02:50;;;;;;;3.70;3.33;;;;;;;2.23;73.18;100466.84;685298;28;45569;-61
2021/01/07 01:03:13;;;;;;;3.85;3.55;;;;;;;2.24;73.29;100470.34;684814;28;44387;-61
2021/01/07 01:03:34;;;;;;;3.92;3.53;;;;;;;2.24;73.17;100479.19;685608;28;44352;-62
2021/01/07 01:03:55;;;;;;;3.83;3.45;;;;;;;2.24;73.27;100479.19;686771;28;22571;-61
2021/01/07 01:04:17;;;;;;;4.07;3.35;;;;;;;2.24;73.36;100479.19;686817;28;46419;-60
2021/01/07 01:04:38;;;;;;;4.65;3.60;;;;;;;2.24;73.33;100475.66;685361;28;46442;-59
2021/01/07 01:05:00;;;;;;;3.72;3.42;;;;;;;2.24;73.24;100478.31;685728;28;21558;-62
2021/01/07 01:05:21;;;;;;;3.70;3.40;;;;;;;2.23;73.22;100476.66;685981;28;24008;-57
2021/01/07 01:05:43;;;;;;;3.90;3.60;;;;;;;2.24;73.14;100475.66;687253;28;1324;-61
2021/01/07 01:06:04;;;;;;;3.65;3.35;;;;;;;2.22;73.19;100483.78;685651;28;46119;-60
2021/01/07 01:06:34;;;;;;;4.00;3.70;;;;;;;2.23;73.35;100482.00;685578;28;43820;-60
2021/01/07 01:06:55;;;;;;;3.38;3.17;;;;;;;2.24;73.27;100481.84;682217;28;138900;-60
2021/01/07 01:07:17;;;;;;;3.30;3.10;;;;;;;2.22;73.33;100472.28;685014;28;45189;-60
2021/01/07 01:07:38;;;;;;;3.53;3.30;;;;;;;2.24;73.32;100473.88;686144;28;23964;-58
2021/01/07 01:07:59;;;;;;;3.58;3.28;;;;;;;2.25;73.18;100480.03;685943;28;22495;-60
2021/01/07 01:08:20;;;;;;;3.55;3.25;;;;;;;2.24;73.24;100473.88;686734;28;4597;-60
2021/01/07 01:08:42;;;;;;;4.10;3.80;;;;;;;2.24;73.25;100473.00;686093;28;22390;-60
2021/01/07 01:09:05;;;;;;;4.00;3.70;;;;;;;2.24;73.26;100473.88;686861;28;22427;-61
2021/01/07 01:09:26;;;;;;;3.88;3.58;;;;;;;2.25;73.28;100480.03;683681;28;92280;-63
2021/01/07 01:09:48;;;;;;;3.45;3.25;;;;;;;2.25;73.21;100478.19;686208;28;23426;-62
2021/01/07 01:10:11;;;;;;;3.88;3.47;;;;;;;2.25;73.22;100480.88;686000;28;23536;-61
2021/01/07 01:10:33;;;;;;;3.40;3.20;;;;;;;2.26;73.28;100481.72;681510;28;63300;-60
2021/01/07 01:10:54;;;;;;;3.70;3.40;;;;;;;2.25;73.20;100477.38;681723;28;69451;-59
2021/01/07 01:11:15;;;;;;;3.60;3.40;;;;;;;2.25;73.18;100482.69;683073;28;23392;-58
2021/01/07 01:11:38;;;;;;;3.88;3.58;;;;;;;2.25;73.07;100480.88;684508;28;9946;-62
2021/01/07 01:11:59;;;;;;;3.38;3.17;;;;;;;2.25;73.27;100480.88;682426;28;44398;-60
2021/01/07 01:12:21;;;;;;;3.75;3.45;;;;;;;2.28;73.25;100480.59;683324;28;45424;-61
2021/01/07 01:12:42;;;;;;;3.60;3.40;;;;;;;2.28;73.19;100479.78;686238;28;22153;-61
2021/01/07 01:13:04;;;;;;;3.92;3.60;;;;;;;2.27;73.15;100484.25;685450;28;45182;-59
2021/01/07 01:13:26;;;;;;;3.80;3.50;;;;;;;2.27;73.14;100483.41;685374;28;46098;-59
2021/01/07 01:13:47;;;;;;;3.80;3.50;;;;;;;2.27;73.16;100478.94;685356;28;21493;-62
2021/01/07 01:14:09;;;;;;;3.38;3.08;;;;;;;2.27;73.06;100478.06;685770;28;45729;-56
2021/01/07 01:14:30;;;;;;;3.55;3.25;;;;;;;2.26;73.12;100476.41;686210;28;21531;-56
2021/01/07 01:14:51;;;;;;;3.55;3.30;;;;;;;2.25;72.95;100482.69;685418;28;44394;-56
2021/01/07 01:15:14;;;;;;;3.35;3.05;;;;;;;2.22;73.02;100475.78;685862;28;21557;-59
2021/01/07 01:15:35;;;;;;;3.55;3.25;;;;;;;2.24;73.00;100478.31;685229;28;46358;-57
2021/01/07 01:15:56;;;;;;;3.60;3.35;;;;;;;2.24;73.09;100479.19;682295;28;44139;-59
2021/01/07 01:16:17;;;;;;;3.40;3.20;;;;;;;2.23;73.09;100477.50;683110;28;22402;-57
2021/01/07 01:16:39;;;;;;;3.70;3.40;;;;;;;2.25;73.21;100480.03;684115;28;22422;-59
2021/01/07 01:17:00;;;;;;;3.63;3.33;;;;;;;2.26;73.05;100484.41;682863;28;45621;-59
2021/01/07 01:17:22;;;;;;;3.65;3.35;;;;;;;2.25;73.05;100485.34;683666;28;22333;-60
2021/01/07 01:17:43;;;;;;;3.42;3.13;;;;;;;2.26;73.12;100479.06;683018;28;46504;-60
2021/01/07 01:18:05;;;;;;;3.35;3.08;;;;;;;2.25;73.07;100474.69;683349;28;17476;-61
2021/01/07 01:18:26;;;;;;;3.42;3.17;;;;;;;2.26;73.01;100476.41;682280;28;45446;-59
2021/01/07 01:18:48;;;;;;;3.40;3.20;;;;;;;2.26;73.01;100476.41;682675;28;23467;-60
2021/01/07 01:19:09;;;;;;;3.55;3.30;;;;;;;2.26;73.00;100479.06;683141;28;44549;-60
2021/01/07 01:19:32;;;;;;;3.40;3.20;;;;;;;2.23;73.02;100474.00;683106;28;23503;-60
2021/01/07 01:19:53;;;;;;;3.60;3.30;;;;;;;2.23;72.94;100477.50;682383;28;70330;-60
2021/01/07 01:20:15;;;;;;;3.65;3.35;;;;;;;2.20;73.07;100471.59;685786;28;22714;-62
2021/01/07 01:20:36;;;;;;;4.15;3.75;;;;;;;2.25;73.05;100480.03;685351;28;44166;-60
2021/01/07 01:20:57;;;;;;;3.85;3.55;;;;;;;2.24;73.04;100479.19;686185;28;21321;-57
2021/01/07 01:21:19;;;;;;;3.53;3.33;;;;;;;2.23;72.91;100479.31;686052;28;21604;-59
2021/01/07 01:21:40;;;;;;;3.55;3.25;;;;;;;2.25;73.08;100482.69;687055;28;42887;-58
2021/01/07 01:22:01;;;;;;;3.35;3.08;;;;;;;2.25;73.02;100480.88;686802;28;9064;-58
2021/01/07 01:22:23;;;;;;;3.60;3.30;;;;;;;2.26;73.09;100487.06;686945;28;5490;-60
2021/01/07 01:22:44;;;;;;;3.50;3.30;;;;;;;2.25;73.02;100480.03;684874;28;46556;-57
2021/01/07 01:23:06;;;;;;;3.78;3.47;;;;;;;2.25;73.00;100486.19;684820;28;41264;-60
2021/01/07 01:23:27;;;;;;;3.58;3.35;;;;;;;2.25;72.92;100485.34;686194;28;22237;-58
2021/01/07 01:23:48;;;;;;;3.60;3.30;;;;;;;2.25;73.02;100483.53;686097;28;22468;-59
2021/01/07 01:24:10;;;;;;;4.00;3.40;;;;;;;2.25;73.05;100485.34;687766;28;18870;-58
2021/01/07 01:24:31;;;;;;;3.67;3.30;;;;;;;2.25;72.90;100475.53;685341;28;46440;-60
2021/01/07 01:24:55;;;;;;;3.63;3.33;;;;;;;2.26;72.93;100481.72;685501;28;44763;-61
2021/01/07 01:25:17;;;;;;;3.30;3.10;;;;;;;2.25;72.94;100482.69;683964;28;69256;-60
2021/01/07 01:25:38;;;;;;;3.30;3.10;;;;;;;2.26;72.86;100487.91;685463;28;45255;-60
2021/01/07 01:25:59;;;;;;;3.65;3.35;;;;;;;2.26;72.87;100481.72;686066;28;22480;-61
2021/01/07 01:26:21;;;;;;;3.75;3.47;;;;;;;2.26;72.96;100482.56;686618;28;1997;-60
2021/01/07 01:26:42;;;;;;;3.60;3.40;;;;;;;2.28;72.96;100477.09;687773;28;21566;-60
2021/01/07 01:27:04;;;;;;;3.22;3.03;;;;;;;2.24;72.96;100478.31;685742;28;23693;-60
2021/01/07 01:27:25;;;;;;;3.30;3.05;;;;;;;2.26;72.84;100485.22;684329;28;46346;-59
2021/01/07 01:27:47;;;;;;;3.47;3.28;;;;;;;2.26;72.83;100485.22;684808;28;43015;-58
2021/01/07 01:28:09;;;;;;;3.50;3.25;;;;;;;2.26;72.85;100492.38;687218;28;894;-61
2021/01/07 01:28:30;;;;;;;3.58;3.35;;;;;;;2.28;72.97;100482.44;685144;28;46478;-61
2021/01/07 01:28:52;;;;;;;3.60;3.40;;;;;;;2.26;72.88;100484.41;685625;28;19795;-60
2021/01/07 01:29:13;;;;;;;3.40;3.20;;;;;;;2.26;72.96;100479.91;686699;28;47255;-57
2021/01/07 01:29:34;;;;;;;3.50;3.30;;;;;;;2.27;72.84;100488.72;686112;28;22265;-58
2021/01/07 01:29:56;;;;;;;3.42;3.22;;;;;;;2.27;72.74;100478.06;686781;28;930;-57
2021/01/07 01:30:20;;;;;;;3.42;3.22;;;;;;;2.27;72.79;100483.41;686658;28;940;-56
2021/01/07 01:30:41;;;;;;;3.47;3.28;;;;;;;2.26;72.73;100477.22;685091;28;46390;-59
2021/01/07 01:31:03;;;;;;;3.22;2.97;;;;;;;2.26;72.76;100482.56;686788;28;926;-58
2021/01/07 01:31:28;;;;;;;3.75;3.45;;;;;;;2.27;72.83;100478.06;686006;28;37878;-56
2021/01/07 01:31:54;;;;;;;3.40;3.20;;;;;;;2.27;72.79;100486.94;684949;28;60961;-60
2021/01/07 01:32:15;;;;;;;3.10;2.90;;;;;;;2.28;72.79;100491.25;686013;28;23417;-60
2021/01/07 01:32:37;;;;;;;3.30;3.10;;;;;;;2.28;72.89;100488.59;685338;28;45469;-57
2021/01/07 01:32:58;;;;;;;3.38;3.15;;;;;;;2.28;72.81;100480.59;685529;28;44425;-57
2021/01/07 01:33:20;;;;;;;3.58;3.28;;;;;;;2.27;72.81;100480.72;686165;28;21549;-58
2021/01/07 01:33:41;;;;;;;3.53;3.28;;;;;;;2.27;72.63;100483.41;686414;28;22751;-55
2021/01/07 01:34:04;;;;;;;3.40;3.20;;;;;;;2.28;72.78;100474.44;685528;28;46341;-56
2021/01/07 01:34:25;;;;;;;3.40;3.20;;;;;;;2.27;72.76;100478.06;684757;28;70614;-59
2021/01/07 01:34:47;;;;;;;3.25;3.05;;;;;;;2.21;72.68;100473.25;685157;28;46390;-59
2021/01/07 01:35:10;;;;;;;3.67;3.38;;;;;;;2.26;72.75;100482.56;685409;28;22418;-61
2021/01/07 01:35:31;;;;;;;3.20;3.00;;;;;;;2.26;72.75;100479.91;684559;28;67503;-58
2021/01/07 01:35:52;;;;;;;3.20;3.00;;;;;;;2.26;72.73;100479.91;686013;28;19301;-60
2021/01/07 01:36:13;;;;;;;3.65;3.35;;;;;;;2.27;72.87;100478.06;684928;28;46351;-60
2021/01/07 01:36:35;;;;;;;3.58;3.28;;;;;;;2.25;72.86;100472.03;687152;28;21548;-61
2021/01/07 01:36:56;;;;;;;3.50;3.20;;;;;;;2.26;72.77;100484.41;684260;28;46089;-61
2021/01/07 01:37:18;;;;;;;3.10;2.90;;;;;;;2.25;72.73;100483.53;685261;28;23446;-59
2021/01/07 01:37:40;;;;;;;3.22;3.03;;;;;;;2.25;72.76;100480.88;686156;28;22435;-61
2021/01/07 01:38:01;;;;;;;3.30;3.10;;;;;;;2.25;72.88;100480.03;685270;28;44447;-60
2021/01/07 01:38:23;;;;;;;3.67;3.35;;;;;;;2.25;72.68;100485.34;685175;28;44199;-60
2021/01/07 01:38:44;;;;;;;3.63;3.33;;;;;;;2.24;72.79;100475.66;685577;28;46371;-59
2021/01/07 01:39:05;;;;;;;3.40;3.20;;;;;;;2.24;72.74;100478.31;686858;28;24411;-60
2021/01/07 01:39:27;;;;;;;3.40;3.20;;;;;;;2.25;72.76;100478.19;686029;28;21563;-60
2021/01/07 01:39:48;;;;;;;3.67;3.47;;;;;;;2.24;72.69;100473.00;685916;28;22448;-61
2021/01/07 01:40:11;;;;;;;3.60;3.40;;;;;;;2.25;72.88;100480.88;685157;28;46381;-61
2021/01/07 01:40:33;;;;;;;3.75;3.45;;;;;;;2.24;72.75;100479.19;684068;28;69372;-61
2021/01/07 01:40:59;;;;;;;3.60;3.30;;;;;;;2.26;72.88;100484.41;685989;28;22250;-59
2021/01/07 01:41:20;;;;;;;3.55;3.25;;;;;;;2.24;72.89;100483.66;682026;28;136700;-59
2021/01/07 01:41:43;;;;;;;3.70;3.40;;;;;;;2.24;72.87;100481.84;687469;28;4510;-57
2021/01/07 01:42:04;;;;;;;3.50;3.30;;;;;;;2.24;72.85;100481.00;685254;28;46554;-58
2021/01/07 01:42:27;;;;;;;3.25;3.05;;;;;;;2.22;72.96;100472.28;685055;28;46317;-60
2021/01/07 01:42:48;;;;;;;3.30;3.00;;;;;;;2.24;72.87;100484.53;684774;28;46542;-59
2021/01/07 01:43:10;;;;;;;3.53;3.22;;;;;;;2.25;72.87;100477.38;685337;28;46374;-60
2021/01/07 01:43:33;;;;;;;3.58;3.30;;;;;;;2.21;72.85;100471.47;685443;28;45243;-59
2021/01/07 01:43:54;;;;;;;3.47;3.20;;;;;;;2.25;72.89;100480.03;684494;28;69362;-55